Gillette Campbell County Airport
KGCC : now visible

Airfield :











YOU CAN JOIN US ON...

 
LOGIN :

Register | Disclaimer

   EN    FR    IT 

 









Legend :    VFR   Marginal VFR   IFR   Intensive IFR   Very Intensive IFR
Visi :
Ceiling :
>= 8 km
>= 3000ft
5 to 8 km
1000 to 3000 ft
1500m to 5 km
500 to 1000 ft
800 to 1500m
200 to 500 ft
< 800m
< 200 ft
Symbols :   Thunderstorms  Fog  Heavy snow  Heavy precipitations  Wind > 20 kt






- Airport Elevation : 4365 ft


KGCC - Gillette Campbell County

CURRENT METAR :
  • 151453Z AUTO 24008KT 10SM OVC085 M06/M08 A2981 RMK AO2 SLP134 T10561083 53007

EXPIRED METARs :
  • 151353Z AUTO 24009KT 10SM FEW085 M07/M09 A2980 RMK AO2 SLP133 T10671094
  • 151253Z AUTO 26009KT 10SM OVC090 M07/M08 A2979 RMK AO2 SLP127 T10671083

TAF KGCC
Valid from the 15 at 12:00 until the 16 at 12:00 UTC


151120Z 1512/1612 24008KT P6SM BKN100



MET'MAP, your aeronautical weather chart ! - Copyright ORBIFLY December 2007 - Disclaimer

ORBIFLY MET'MAP TEAM :

Programming & Development : Alexandra Zaïnal
Concept & original design : Baudouin d'Aumeries
Assistance for programming : Marc-Olivier Méhu
Technical & hardware support : Manuel Goepfert

Contact : metmap@orbifly.com




SOURCES & CREDITS :

   NOAA       Earth
Advisory